sensor_id;sensor_type;location;lat;lon;timestamp;temperature;humidity
13052;DHT22;6592;47.484;9.726;2024-03-23T00:52:59;9.80;99.90
13052;DHT22;6592;47.484;9.726;2024-03-23T00:55:27;9.70;99.90
13052;DHT22;6592;47.484;9.726;2024-03-23T00:57:53;9.70;99.90
13052;DHT22;6592;47.484;9.726;2024-03-23T01:00:20;9.70;99.90
13052;DHT22;6592;47.484;9.726;2024-03-23T01:02:46;9.80;99.90
13052;DHT22;6592;47.484;9.726;2024-03-23T01:05:14;9.90;99.90
13052;DHT22;6592;47.484;9.726;2024-03-23T01:07:40;9.90;99.90
13052;DHT22;6592;47.484;9.726;2024-03-23T01:10:09;9.90;99.90
13052;DHT22;6592;47.484;9.726;2024-03-23T01:12:35;9.90;99.90
13052;DHT22;6592;47.484;9.726;2024-03-23T01:15:03;9.90;99.90
13052;DHT22;6592;47.484;9.726;2024-03-23T01:17:29;9.80;99.90
13052;DHT22;6592;47.484;9.726;2024-03-23T01:19:56;9.70;99.90
13052;DHT22;6592;47.484;9.726;2024-03-23T01:22:23;9.60;99.90
13052;DHT22;6592;47.484;9.726;2024-03-23T01:24:50;9.70;99.90
13052;DHT22;6592;47.484;9.726;2024-03-23T01:27:18;9.70;99.90
13052;DHT22;6592;47.484;9.726;2024-03-23T01:29:45;9.60;99.90
13052;DHT22;6592;47.484;9.726;2024-03-23T01:32:11;9.60;99.90
13052;DHT22;6592;47.484;9.726;2024-03-23T01:34:39;9.60;99.90
13052;DHT22;6592;47.484;9.726;2024-03-23T01:37:05;9.50;99.90
13052;DHT22;6592;47.484;9.726;2024-03-23T01:39:32;9.40;99.90
13052;DHT22;6592;47.484;9.726;2024-03-23T01:41:58;9.40;99.90
13052;DHT22;6592;47.484;9.726;2024-03-23T01:44:27;9.50;99.90
13052;DHT22;6592;47.484;9.726;2024-03-23T01:46:54;9.50;99.90
13052;DHT22;6592;47.484;9.726;2024-03-23T01:49:21;9.50;99.90
13052;DHT22;6592;47.484;9.726;2024-03-23T01:51:48;9.50;99.90
13052;DHT22;6592;47.484;9.726;2024-03-23T01:54:15;9.50;99.90
13052;DHT22;6592;47.484;9.726;2024-03-23T01:56:42;9.60;99.90
13052;DHT22;6592;47.484;9.726;2024-03-23T01:59:09;9.60;99.90
13052;DHT22;6592;47.484;9.726;2024-03-23T02:01:37;9.70;99.90
13052;DHT22;6592;47.484;9.726;2024-03-23T02:04:04;9.70;99.90
13052;DHT22;6592;47.484;9.726;2024-03-23T02:06:31;9.70;99.90
13052;DHT22;6592;47.484;9.726;2024-03-23T02:08:58;9.60;99.90
13052;DHT22;6592;47.484;9.726;2024-03-23T02:11:25;9.60;99.90
13052;DHT22;6592;47.484;9.726;2024-03-23T02:13:52;9.60;99.90
13052;DHT22;6592;47.484;9.726;2024-03-23T02:16:18;9.70;99.90
13052;DHT22;6592;47.484;9.726;2024-03-23T02:18:47;9.70;99.90
13052;DHT22;6592;47.484;9.726;2024-03-23T02:21:13;9.80;99.90
13052;DHT22;6592;47.484;9.726;2024-03-23T02:23:42;9.80;99.90
13052;DHT22;6592;47.484;9.726;2024-03-23T02:26:08;9.80;99.90
13052;DHT22;6592;47.484;9.726;2024-03-23T02:28:35;9.80;99.90
13052;DHT22;6592;47.484;9.726;2024-03-23T02:31:02;9.80;99.90
13052;DHT22;6592;47.484;9.726;2024-03-23T02:33:30;9.80;99.90
13052;DHT22;6592;47.484;9.726;2024-03-23T02:35:58;9.80;99.90
13052;DHT22;6592;47.484;9.726;2024-03-23T02:38:25;9.70;99.90
13052;DHT22;6592;47.484;9.726;2024-03-23T02:40:52;9.70;99.90
13052;DHT22;6592;47.484;9.726;2024-03-23T02:43:20;9.60;99.90
13052;DHT22;6592;47.484;9.726;2024-03-23T02:45:46;9.60;99.90
13052;DHT22;6592;47.484;9.726;2024-03-23T02:48:13;9.60;99.90
13052;DHT22;6592;47.484;9.726;2024-03-23T02:50:40;9.60;99.90
13052;DHT22;6592;47.484;9.726;2024-03-23T02:53:07;9.60;99.90
13052;DHT22;6592;47.484;9.726;2024-03-23T02:55:33;9.50;99.90
13052;DHT22;6592;47.484;9.726;2024-03-23T02:58:02;9.60;99.90
13052;DHT22;6592;47.484;9.726;2024-03-23T03:00:28;9.60;99.90
13052;DHT22;6592;47.484;9.726;2024-03-23T03:02:56;9.60;99.90
13052;DHT22;6592;47.484;9.726;2024-03-23T03:05:22;9.70;99.90
13052;DHT22;6592;47.484;9.726;2024-03-23T03:07:49;9.80;99.90
13052;DHT22;6592;47.484;9.726;2024-03-23T03:10:16;9.80;99.90
13052;DHT22;6592;47.484;9.726;2024-03-23T03:12:43;9.90;99.90
13052;DHT22;6592;47.484;9.726;2024-03-23T03:15:12;9.90;99.90
13052;DHT22;6592;47.484;9.726;2024-03-23T03:17:40;9.90;99.90
13052;DHT22;6592;47.484;9.726;2024-03-23T03:20:07;10.00;99.90
13052;DHT22;6592;47.484;9.726;2024-03-23T03:22:39;10.00;99.90
13052;DHT22;6592;47.484;9.726;2024-03-23T03:25:06;10.00;99.90
13052;DHT22;6592;47.484;9.726;2024-03-23T03:27:34;9.90;99.90
13052;DHT22;6592;47.484;9.726;2024-03-23T03:30:00;9.90;99.90
13052;DHT22;6592;47.484;9.726;2024-03-23T03:32:30;9.80;99.90
13052;DHT22;6592;47.484;9.726;2024-03-23T03:34:56;9.90;99.90
13052;DHT22;6592;47.484;9.726;2024-03-23T03:37:23;9.90;99.90
13052;DHT22;6592;47.484;9.726;2024-03-23T03:39:49;10.00;99.90
13052;DHT22;6592;47.484;9.726;2024-03-23T03:42:17;10.10;99.90
13052;DHT22;6592;47.484;9.726;2024-03-23T03:44:43;10.10;99.90
13052;DHT22;6592;47.484;9.726;2024-03-23T03:47:10;10.30;99.90
13052;DHT22;6592;47.484;9.726;2024-03-23T03:49:38;10.10;99.90
13052;DHT22;6592;47.484;9.726;2024-03-23T03:52:05;10.10;99.90
13052;DHT22;6592;47.484;9.726;2024-03-23T03:54:32;10.20;99.90
13052;DHT22;6592;47.484;9.726;2024-03-23T03:57:00;10.10;99.90
13052;DHT22;6592;47.484;9.726;2024-03-23T03:59:26;10.10;99.90
13052;DHT22;6592;47.484;9.726;2024-03-23T04:01:53;10.00;99.90
13052;DHT22;6592;47.484;9.726;2024-03-23T04:04:20;9.90;99.90
13052;DHT22;6592;47.484;9.726;2024-03-23T04:06:49;9.90;99.90
13052;DHT22;6592;47.484;9.726;2024-03-23T04:09:16;9.80;99.90
13052;DHT22;6592;47.484;9.726;2024-03-23T04:11:43;9.80;99.90
13052;DHT22;6592;47.484;9.726;2024-03-23T04:14:09;9.80;99.90
13052;DHT22;6592;47.484;9.726;2024-03-23T04:16:37;9.90;99.90
13052;DHT22;6592;47.484;9.726;2024-03-23T04:19:03;9.80;99.90
13052;DHT22;6592;47.484;9.726;2024-03-23T04:21:30;9.80;99.90
13052;DHT22;6592;47.484;9.726;2024-03-23T04:23:58;9.80;99.90
13052;DHT22;6592;47.484;9.726;2024-03-23T04:26:25;9.80;99.90
13052;DHT22;6592;47.484;9.726;2024-03-23T04:28:51;9.90;99.90
13052;DHT22;6592;47.484;9.726;2024-03-23T04:31:19;9.90;99.90
13052;DHT22;6592;47.484;9.726;2024-03-23T04:33:45;9.90;99.90
13052;DHT22;6592;47.484;9.726;2024-03-23T04:36:12;9.90;99.90
13052;DHT22;6592;47.484;9.726;2024-03-23T04:38:39;9.90;99.90
13052;DHT22;6592;47.484;9.726;2024-03-23T04:41:07;9.90;99.90
13052;DHT22;6592;47.484;9.726;2024-03-23T04:43:34;9.80;99.90
13052;DHT22;6592;47.484;9.726;2024-03-23T04:46:02;9.70;99.90
13052;DHT22;6592;47.484;9.726;2024-03-23T04:48:29;9.70;99.90
13052;DHT22;6592;47.484;9.726;2024-03-23T04:50:58;9.80;99.90
13052;DHT22;6592;47.484;9.726;2024-03-23T04:53:25;9.80;99.90
13052;DHT22;6592;47.484;9.726;2024-03-23T04:55:54;9.80;99.90
13052;DHT22;6592;47.484;9.726;2024-03-23T04:58:23;9.70;99.90
13052;DHT22;6592;47.484;9.726;2024-03-23T05:00:53;9.70;99.90
13052;DHT22;6592;47.484;9.726;2024-03-23T05:03:20;9.60;99.90
13052;DHT22;6592;47.484;9.726;2024-03-23T05:05:47;9.60;99.90
13052;DHT22;6592;47.484;9.726;2024-03-23T05:08:14;9.50;99.90
13052;DHT22;6592;47.484;9.726;2024-03-23T05:10:42;9.50;99.90
13052;DHT22;6592;47.484;9.726;2024-03-23T05:13:08;9.50;99.90
13052;DHT22;6592;47.484;9.726;2024-03-23T05:15:37;9.60;99.90
13052;DHT22;6592;47.484;9.726;2024-03-23T05:18:04;9.70;99.90
13052;DHT22;6592;47.484;9.726;2024-03-23T05:20:32;9.70;99.90
13052;DHT22;6592;47.484;9.726;2024-03-23T05:22:58;9.70;99.90
13052;DHT22;6592;47.484;9.726;2024-03-23T05:25:26;9.70;99.90
13052;DHT22;6592;47.484;9.726;2024-03-23T05:27:52;9.70;99.90
13052;DHT22;6592;47.484;9.726;2024-03-23T05:30:19;9.70;99.90
13052;DHT22;6592;47.484;9.726;2024-03-23T05:32:47;9.60;99.90
13052;DHT22;6592;47.484;9.726;2024-03-23T05:35:14;9.50;99.90
13052;DHT22;6592;47.484;9.726;2024-03-23T05:37:41;9.60;99.90
13052;DHT22;6592;47.484;9.726;2024-03-23T05:40:09;9.60;99.90
13052;DHT22;6592;47.484;9.726;2024-03-23T05:42:35;9.60;99.90
13052;DHT22;6592;47.484;9.726;2024-03-23T05:45:03;9.60;99.90
13052;DHT22;6592;47.484;9.726;2024-03-23T05:47:32;9.60;99.90
13052;DHT22;6592;47.484;9.726;2024-03-23T05:50:01;9.60;99.90
13052;DHT22;6592;47.484;9.726;2024-03-23T05:52:27;9.70;99.90
13052;DHT22;6592;47.484;9.726;2024-03-23T05:54:55;9.80;99.90
13052;DHT22;6592;47.484;9.726;2024-03-23T05:57:21;9.90;99.90
13052;DHT22;6592;47.484;9.726;2024-03-23T05:59:49;10.00;99.90
13052;DHT22;6592;47.484;9.726;2024-03-23T06:02:15;10.30;99.90
13052;DHT22;6592;47.484;9.726;2024-03-23T06:04:42;10.70;99.90
13052;DHT22;6592;47.484;9.726;2024-03-23T06:07:12;10.90;99.90
13052;DHT22;6592;47.484;9.726;2024-03-23T06:09:40;11.10;99.90
13052;DHT22;6592;47.484;9.726;2024-03-23T06:12:07;11.00;99.90
13052;DHT22;6592;47.484;9.726;2024-03-23T06:14:34;11.00;99.90
13052;DHT22;6592;47.484;9.726;2024-03-23T06:17:01;10.90;99.90
13052;DHT22;6592;47.484;9.726;2024-03-23T06:19:28;10.90;99.90
13052;DHT22;6592;47.484;9.726;2024-03-23T06:21:55;10.80;99.90
13052;DHT22;6592;47.484;9.726;2024-03-23T06:24:23;10.70;99.90
13052;DHT22;6592;47.484;9.726;2024-03-23T06:26:50;10.60;99.90
13052;DHT22;6592;47.484;9.726;2024-03-23T06:29:17;10.60;99.90
13052;DHT22;6592;47.484;9.726;2024-03-23T06:31:43;10.70;99.90
13052;DHT22;6592;47.484;9.726;2024-03-23T06:34:11;10.60;99.90
13052;DHT22;6592;47.484;9.726;2024-03-23T06:36:37;10.50;99.90
13052;DHT22;6592;47.484;9.726;2024-03-23T06:39:04;10.50;99.90
13052;DHT22;6592;47.484;9.726;2024-03-23T06:41:32;10.40;99.90
13052;DHT22;6592;47.484;9.726;2024-03-23T06:43:59;10.40;99.90
13052;DHT22;6592;47.484;9.726;2024-03-23T06:46:26;10.40;99.90
13052;DHT22;6592;47.484;9.726;2024-03-23T06:48:53;10.50;99.90
13052;DHT22;6592;47.484;9.726;2024-03-23T06:51:19;10.60;99.90
13052;DHT22;6592;47.484;9.726;2024-03-23T06:53:46;10.60;99.90
13052;DHT22;6592;47.484;9.726;2024-03-23T06:56:13;10.80;99.90
13052;DHT22;6592;47.484;9.726;2024-03-23T06:58:41;10.90;99.90
13052;DHT22;6592;47.484;9.726;2024-03-23T07:01:08;11.10;99.90
13052;DHT22;6592;47.484;9.726;2024-03-23T07:03:35;11.10;99.90
13052;DHT22;6592;47.484;9.726;2024-03-23T07:06:01;11.20;99.90
13052;DHT22;6592;47.484;9.726;2024-03-23T07:08:29;11.20;99.90
13052;DHT22;6592;47.484;9.726;2024-03-23T07:10:55;11.10;99.90
13052;DHT22;6592;47.484;9.726;2024-03-23T07:13:22;11.10;99.90
13052;DHT22;6592;47.484;9.726;2024-03-23T07:15:53;11.10;99.90
13052;DHT22;6592;47.484;9.726;2024-03-23T07:18:21;11.00;99.90
13052;DHT22;6592;47.484;9.726;2024-03-23T07:20:54;11.00;99.90
13052;DHT22;6592;47.484;9.726;2024-03-23T07:23:22;11.00;99.90
13052;DHT22;6592;47.484;9.726;2024-03-23T07:25:56;10.90;99.90
13052;DHT22;6592;47.484;9.726;2024-03-23T07:28:24;10.80;99.90
13052;DHT22;6592;47.484;9.726;2024-03-23T07:31:02;10.80;99.90
13052;DHT22;6592;47.484;9.726;2024-03-23T07:33:30;10.70;99.90
13052;DHT22;6592;47.484;9.726;2024-03-23T07:35:56;10.70;99.90
13052;DHT22;6592;47.484;9.726;2024-03-23T07:38:26;10.70;99.90
13052;DHT22;6592;47.484;9.726;2024-03-23T07:40:52;10.60;99.90
13052;DHT22;6592;47.484;9.726;2024-03-23T07:43:21;10.60;99.90
13052;DHT22;6592;47.484;9.726;2024-03-23T07:45:51;10.60;99.90
13052;DHT22;6592;47.484;9.726;2024-03-23T07:48:21;10.50;99.90
13052;DHT22;6592;47.484;9.726;2024-03-23T07:50:57;10.50;99.90
13052;DHT22;6592;47.484;9.726;2024-03-23T07:53:24;10.50;99.90
13052;DHT22;6592;47.484;9.726;2024-03-23T07:55:55;10.40;99.90
13052;DHT22;6592;47.484;9.726;2024-03-23T07:58:23;10.50;99.90
13052;DHT22;6592;47.484;9.726;2024-03-23T08:00:49;10.40;99.90
13052;DHT22;6592;47.484;9.726;2024-03-23T08:03:17;10.40;99.90
13052;DHT22;6592;47.484;9.726;2024-03-23T08:05:44;10.40;99.90
13052;DHT22;6592;47.484;9.726;2024-03-23T08:08:12;10.40;99.90
13052;DHT22;6592;47.484;9.726;2024-03-23T08:10:47;10.40;99.90
13052;DHT22;6592;47.484;9.726;2024-03-23T08:13:15;10.40;99.90
13052;DHT22;6592;47.484;9.726;2024-03-23T08:15:41;10.40;99.90
13052;DHT22;6592;47.484;9.726;2024-03-23T08:18:09;10.40;99.90
13052;DHT22;6592;47.484;9.726;2024-03-23T08:20:35;10.40;99.90
13052;DHT22;6592;47.484;9.726;2024-03-23T08:23:05;10.40;99.90
13052;DHT22;6592;47.484;9.726;2024-03-23T08:25:32;10.30;99.90
13052;DHT22;6592;47.484;9.726;2024-03-23T08:27:59;10.40;99.90
13052;DHT22;6592;47.484;9.726;2024-03-23T08:30:26;10.30;99.90
13052;DHT22;6592;47.484;9.726;2024-03-23T08:32:53;10.30;99.90
13052;DHT22;6592;47.484;9.726;2024-03-23T08:35:19;10.40;99.90
13052;DHT22;6592;47.484;9.726;2024-03-23T08:37:47;10.40;99.90
13052;DHT22;6592;47.484;9.726;2024-03-23T08:40:14;10.30;99.90
13052;DHT22;6592;47.484;9.726;2024-03-23T08:42:42;10.30;99.90
13052;DHT22;6592;47.484;9.726;2024-03-23T08:45:08;10.20;99.90
13052;DHT22;6592;47.484;9.726;2024-03-23T08:47:35;10.20;99.90
13052;DHT22;6592;47.484;9.726;2024-03-23T08:50:02;10.20;99.90
13052;DHT22;6592;47.484;9.726;2024-03-23T08:52:29;10.10;99.90
13052;DHT22;6592;47.484;9.726;2024-03-23T08:54:55;10.10;99.90
13052;DHT22;6592;47.484;9.726;2024-03-23T08:57:25;10.10;99.90
13052;DHT22;6592;47.484;9.726;2024-03-23T08:59:51;10.10;99.90
13052;DHT22;6592;47.484;9.726;2024-03-23T09:02:18;10.10;99.90
13052;DHT22;6592;47.484;9.726;2024-03-23T09:04:45;10.10;99.90
13052;DHT22;6592;47.484;9.726;2024-03-23T09:07:12;10.10;99.90
13052;DHT22;6592;47.484;9.726;2024-03-23T09:09:38;10.10;99.90
13052;DHT22;6592;47.484;9.726;2024-03-23T09:12:06;10.10;99.90
13052;DHT22;6592;47.484;9.726;2024-03-23T09:14:34;10.10;99.90
13052;DHT22;6592;47.484;9.726;2024-03-23T09:17:01;10.10;99.90
13052;DHT22;6592;47.484;9.726;2024-03-23T09:19:28;10.10;99.90
13052;DHT22;6592;47.484;9.726;2024-03-23T09:21:56;10.00;99.90
13052;DHT22;6592;47.484;9.726;2024-03-23T09:24:22;9.70;99.90
13052;DHT22;6592;47.484;9.726;2024-03-23T09:26:51;9.40;99.90
13052;DHT22;6592;47.484;9.726;2024-03-23T09:29:17;9.20;99.90
13052;DHT22;6592;47.484;9.726;2024-03-23T09:31:46;9.10;99.90
13052;DHT22;6592;47.484;9.726;2024-03-23T09:34:12;8.90;99.90
13052;DHT22;6592;47.484;9.726;2024-03-23T09:36:39;8.80;99.90
13052;DHT22;6592;47.484;9.726;2024-03-23T09:39:06;8.80;99.90
13052;DHT22;6592;47.484;9.726;2024-03-23T09:41:35;8.80;99.90
13052;DHT22;6592;47.484;9.726;2024-03-23T09:44:01;8.70;99.90
13052;DHT22;6592;47.484;9.726;2024-03-23T09:46:29;8.60;99.90
13052;DHT22;6592;47.484;9.726;2024-03-23T09:49:01;8.60;99.90
13052;DHT22;6592;47.484;9.726;2024-03-23T09:51:30;8.60;99.90
13052;DHT22;6592;47.484;9.726;2024-03-23T09:53:56;8.50;99.90
13052;DHT22;6592;47.484;9.726;2024-03-23T09:56:24;8.40;99.90
13052;DHT22;6592;47.484;9.726;2024-03-23T09:59:00;8.40;99.90
13052;DHT22;6592;47.484;9.726;2024-03-23T10:01:29;8.40;99.90
13052;DHT22;6592;47.484;9.726;2024-03-23T10:03:55;8.50;99.90
13052;DHT22;6592;47.484;9.726;2024-03-23T10:06:24;8.50;99.90
13052;DHT22;6592;47.484;9.726;2024-03-23T10:08:51;8.50;99.90
13052;DHT22;6592;47.484;9.726;2024-03-23T10:11:20;8.60;99.90
13052;DHT22;6592;47.484;9.726;2024-03-23T10:13:47;8.60;99.90
13052;DHT22;6592;47.484;9.726;2024-03-23T10:16:21;8.60;99.90
13052;DHT22;6592;47.484;9.726;2024-03-23T10:18:48;8.70;99.90
13052;DHT22;6592;47.484;9.726;2024-03-23T10:21:16;8.70;99.90
13052;DHT22;6592;47.484;9.726;2024-03-23T10:23:45;8.60;99.90
13052;DHT22;6592;47.484;9.726;2024-03-23T10:26:13;8.50;99.90
13052;DHT22;6592;47.484;9.726;2024-03-23T10:28:51;8.40;99.90
13052;DHT22;6592;47.484;9.726;2024-03-23T10:31:18;8.40;99.90
13052;DHT22;6592;47.484;9.726;2024-03-23T10:33:45;8.50;99.90
13052;DHT22;6592;47.484;9.726;2024-03-23T10:36:13;8.50;99.90
13052;DHT22;6592;47.484;9.726;2024-03-23T10:38:41;8.50;99.90
13052;DHT22;6592;47.484;9.726;2024-03-23T10:41:10;8.60;99.90
13052;DHT22;6592;47.484;9.726;2024-03-23T10:43:37;8.60;99.90
13052;DHT22;6592;47.484;9.726;2024-03-23T10:46:04;8.50;99.90
13052;DHT22;6592;47.484;9.726;2024-03-23T10:48:32;8.60;99.90
13052;DHT22;6592;47.484;9.726;2024-03-23T10:50:59;8.70;99.90
13052;DHT22;6592;47.484;9.726;2024-03-23T10:53:27;8.80;99.90
13052;DHT22;6592;47.484;9.726;2024-03-23T10:55:55;8.80;99.90
13052;DHT22;6592;47.484;9.726;2024-03-23T10:58:26;8.90;99.90
13052;DHT22;6592;47.484;9.726;2024-03-23T11:00:54;9.00;99.90
13052;DHT22;6592;47.484;9.726;2024-03-23T11:03:31;9.10;99.90
13052;DHT22;6592;47.484;9.726;2024-03-23T11:05:59;9.10;99.90
13052;DHT22;6592;47.484;9.726;2024-03-23T11:08:33;9.10;99.90
13052;DHT22;6592;47.484;9.726;2024-03-23T11:11:14;9.20;99.90
13052;DHT22;6592;47.484;9.726;2024-03-23T11:13:42;9.20;99.90
13052;DHT22;6592;47.484;9.726;2024-03-23T11:16:17;9.00;99.90
13052;DHT22;6592;47.484;9.726;2024-03-23T11:18:43;9.00;99.90
13052;DHT22;6592;47.484;9.726;2024-03-23T11:21:11;9.00;99.90
13052;DHT22;6592;47.484;9.726;2024-03-23T11:24:12;9.20;99.90
13052;DHT22;6592;47.484;9.726;2024-03-23T11:26:40;9.40;99.90
13052;DHT22;6592;47.484;9.726;2024-03-23T11:29:11;9.50;99.90
13052;DHT22;6592;47.484;9.726;2024-03-23T11:31:38;9.40;99.90
13052;DHT22;6592;47.484;9.726;2024-03-23T11:34:05;9.30;99.90
13052;DHT22;6592;47.484;9.726;2024-03-23T11:36:32;9.20;99.90
13052;DHT22;6592;47.484;9.726;2024-03-23T11:39:12;9.10;99.90
13052;DHT22;6592;47.484;9.726;2024-03-23T11:41:47;9.00;99.90
13052;DHT22;6592;47.484;9.726;2024-03-23T11:44:19;9.10;99.90
13052;DHT22;6592;47.484;9.726;2024-03-23T11:46:48;9.10;99.90
13052;DHT22;6592;47.484;9.726;2024-03-23T11:49:22;9.10;99.90
13052;DHT22;6592;47.484;9.726;2024-03-23T11:51:50;9.00;99.90
13052;DHT22;6592;47.484;9.726;2024-03-23T11:54:20;9.00;99.90
13052;DHT22;6592;47.484;9.726;2024-03-23T11:56:55;8.90;99.90
13052;DHT22;6592;47.484;9.726;2024-03-23T11:59:36;8.90;99.90
13052;DHT22;6592;47.484;9.726;2024-03-23T12:02:06;8.90;99.90
13052;DHT22;6592;47.484;9.726;2024-03-23T12:04:33;8.80;99.90
13052;DHT22;6592;47.484;9.726;2024-03-23T12:07:11;8.70;99.90
13052;DHT22;6592;47.484;9.726;2024-03-23T12:09:38;8.80;99.90
13052;DHT22;6592;47.484;9.726;2024-03-23T12:12:08;8.80;99.90
13052;DHT22;6592;47.484;9.726;2024-03-23T12:14:35;8.80;99.90
13052;DHT22;6592;47.484;9.726;2024-03-23T12:17:10;8.90;99.90
13052;DHT22;6592;47.484;9.726;2024-03-23T12:19:37;9.00;99.90
13052;DHT22;6592;47.484;9.726;2024-03-23T12:22:04;8.90;99.90
13052;DHT22;6592;47.484;9.726;2024-03-23T12:24:31;8.90;99.90
13052;DHT22;6592;47.484;9.726;2024-03-23T12:27:01;8.80;99.90
13052;DHT22;6592;47.484;9.726;2024-03-23T12:29:29;8.80;99.90
13052;DHT22;6592;47.484;9.726;2024-03-23T12:31:59;8.80;99.90
13052;DHT22;6592;47.484;9.726;2024-03-23T12:34:26;8.80;99.90
13052;DHT22;6592;47.484;9.726;2024-03-23T12:36:53;8.70;99.90
13052;DHT22;6592;47.484;9.726;2024-03-23T12:39:19;8.60;99.90
13052;DHT22;6592;47.484;9.726;2024-03-23T12:41:47;8.60;99.90
13052;DHT22;6592;47.484;9.726;2024-03-23T12:44:13;8.60;99.90
13052;DHT22;6592;47.484;9.726;2024-03-23T12:46:41;8.70;99.90
13052;DHT22;6592;47.484;9.726;2024-03-23T12:49:09;8.80;99.90
13052;DHT22;6592;47.484;9.726;2024-03-23T12:51:36;8.80;99.90
13052;DHT22;6592;47.484;9.726;2024-03-23T12:54:03;8.90;99.90
13052;DHT22;6592;47.484;9.726;2024-03-23T12:56:30;9.00;99.90
13052;DHT22;6592;47.484;9.726;2024-03-23T12:58:57;9.00;99.90
13052;DHT22;6592;47.484;9.726;2024-03-23T13:01:25;9.00;99.90
13052;DHT22;6592;47.484;9.726;2024-03-23T13:03:52;9.00;99.90
13052;DHT22;6592;47.484;9.726;2024-03-23T13:06:20;9.00;99.90
13052;DHT22;6592;47.484;9.726;2024-03-23T13:08:47;9.20;99.90
13052;DHT22;6592;47.484;9.726;2024-03-23T13:11:15;9.40;99.90
13052;DHT22;6592;47.484;9.726;2024-03-23T13:13:42;9.60;99.90
13052;DHT22;6592;47.484;9.726;2024-03-23T13:16:09;9.90;99.90
13052;DHT22;6592;47.484;9.726;2024-03-23T13:18:35;10.20;99.90
13052;DHT22;6592;47.484;9.726;2024-03-23T13:21:04;10.50;99.90
13052;DHT22;6592;47.484;9.726;2024-03-23T13:23:32;10.70;99.90
13052;DHT22;6592;47.484;9.726;2024-03-23T13:26:01;10.80;99.90
13052;DHT22;6592;47.484;9.726;2024-03-23T13:28:28;10.80;99.90
13052;DHT22;6592;47.484;9.726;2024-03-23T13:30:56;10.70;99.90
13052;DHT22;6592;47.484;9.726;2024-03-23T13:33:23;10.50;99.90
13052;DHT22;6592;47.484;9.726;2024-03-23T13:35:51;10.30;99.90
13052;DHT22;6592;47.484;9.726;2024-03-23T13:38:18;10.20;99.90
13052;DHT22;6592;47.484;9.726;2024-03-23T13:40:52;10.20;99.90
13052;DHT22;6592;47.484;9.726;2024-03-23T13:43:19;10.10;99.90
13052;DHT22;6592;47.484;9.726;2024-03-23T13:45:47;10.00;99.90
13052;DHT22;6592;47.484;9.726;2024-03-23T13:48:13;10.00;99.90
13052;DHT22;6592;47.484;9.726;2024-03-23T13:50:41;10.00;99.90
13052;DHT22;6592;47.484;9.726;2024-03-23T13:53:07;10.00;99.90
13052;DHT22;6592;47.484;9.726;2024-03-23T13:55:35;10.10;99.90
13052;DHT22;6592;47.484;9.726;2024-03-23T13:58:03;10.10;99.90
13052;DHT22;6592;47.484;9.726;2024-03-23T14:00:31;10.30;99.90
13052;DHT22;6592;47.484;9.726;2024-03-23T14:02:58;10.40;99.90
13052;DHT22;6592;47.484;9.726;2024-03-23T14:05:26;10.40;99.90
13052;DHT22;6592;47.484;9.726;2024-03-23T14:07:52;10.30;99.90
13052;DHT22;6592;47.484;9.726;2024-03-23T14:10:20;10.20;99.90
13052;DHT22;6592;47.484;9.726;2024-03-23T14:12:46;10.10;99.90
13052;DHT22;6592;47.484;9.726;2024-03-23T14:15:14;10.40;99.90
13052;DHT22;6592;47.484;9.726;2024-03-23T14:17:41;11.00;99.90
13052;DHT22;6592;47.484;9.726;2024-03-23T14:20:09;11.90;99.90
13052;DHT22;6592;47.484;9.726;2024-03-23T14:22:37;13.00;99.90
13052;DHT22;6592;47.484;9.726;2024-03-23T14:25:05;13.90;99.90
13052;DHT22;6592;47.484;9.726;2024-03-23T14:27:31;14.70;99.90
13052;DHT22;6592;47.484;9.726;2024-03-23T14:29:58;15.50;99.90
13052;DHT22;6592;47.484;9.726;2024-03-23T14:32:26;16.20;99.90
13052;DHT22;6592;47.484;9.726;2024-03-23T14:34:54;16.20;99.90
13052;DHT22;6592;47.484;9.726;2024-03-23T14:37:21;15.80;99.90
13052;DHT22;6592;47.484;9.726;2024-03-23T14:39:48;15.30;99.90
13052;DHT22;6592;47.484;9.726;2024-03-23T14:42:14;14.70;99.90
13052;DHT22;6592;47.484;9.726;2024-03-23T14:44:41;14.20;99.90
13052;DHT22;6592;47.484;9.726;2024-03-23T14:47:08;13.60;99.90
13052;DHT22;6592;47.484;9.726;2024-03-23T14:49:36;13.20;99.90
13052;DHT22;6592;47.484;9.726;2024-03-23T14:52:03;12.90;99.90
13052;DHT22;6592;47.484;9.726;2024-03-23T14:54:31;12.70;99.90
13052;DHT22;6592;47.484;9.726;2024-03-23T14:56:57;12.50;99.90
13052;DHT22;6592;47.484;9.726;2024-03-23T14:59:24;12.20;99.90
13052;DHT22;6592;47.484;9.726;2024-03-23T15:01:50;12.00;99.90
13052;DHT22;6592;47.484;9.726;2024-03-23T15:04:18;11.60;99.90
13052;DHT22;6592;47.484;9.726;2024-03-23T15:06:47;11.30;99.90
13052;DHT22;6592;47.484;9.726;2024-03-23T15:09:16;10.90;99.90
13052;DHT22;6592;47.484;9.726;2024-03-23T15:11:42;10.70;99.90
13052;DHT22;6592;47.484;9.726;2024-03-23T15:14:09;10.50;99.90
13052;DHT22;6592;47.484;9.726;2024-03-23T15:16:36;10.50;99.90
13052;DHT22;6592;47.484;9.726;2024-03-23T15:19:04;10.60;99.90
13052;DHT22;6592;47.484;9.726;2024-03-23T15:21:32;10.80;99.90
13052;DHT22;6592;47.484;9.726;2024-03-23T15:24:01;11.00;99.90
13052;DHT22;6592;47.484;9.726;2024-03-23T15:26:27;11.30;99.90
13052;DHT22;6592;47.484;9.726;2024-03-23T15:28:55;11.70;99.90
13052;DHT22;6592;47.484;9.726;2024-03-23T15:31:35;12.20;99.90
13052;DHT22;6592;47.484;9.726;2024-03-23T15:34:03;12.60;99.90
13052;DHT22;6592;47.484;9.726;2024-03-23T15:36:30;13.10;99.90
13052;DHT22;6592;47.484;9.726;2024-03-23T15:38:57;13.50;99.90
13052;DHT22;6592;47.484;9.726;2024-03-23T15:41:25;13.80;99.90
13052;DHT22;6592;47.484;9.726;2024-03-23T15:43:52;14.00;99.90
13052;DHT22;6592;47.484;9.726;2024-03-23T15:46:19;14.10;99.90
13052;DHT22;6592;47.484;9.726;2024-03-23T15:48:46;14.10;99.90
13052;DHT22;6592;47.484;9.726;2024-03-23T15:51:13;14.30;99.90
13052;DHT22;6592;47.484;9.726;2024-03-23T15:53:40;14.00;99.90
13052;DHT22;6592;47.484;9.726;2024-03-23T15:56:07;14.00;99.90
13052;DHT22;6592;47.484;9.726;2024-03-23T15:58:35;13.90;99.90
13052;DHT22;6592;47.484;9.726;2024-03-23T16:01:03;13.90;99.90
13052;DHT22;6592;47.484;9.726;2024-03-23T16:03:31;13.90;99.90
13052;DHT22;6592;47.484;9.726;2024-03-23T16:05:59;13.80;99.90
13052;DHT22;6592;47.484;9.726;2024-03-23T16:08:27;13.80;99.90
13052;DHT22;6592;47.484;9.726;2024-03-23T16:10:54;13.80;99.90
13052;DHT22;6592;47.484;9.726;2024-03-23T16:13:22;13.80;99.90
13052;DHT22;6592;47.484;9.726;2024-03-23T16:15:56;13.50;99.90
13052;DHT22;6592;47.484;9.726;2024-03-23T16:18:24;13.30;99.90
13052;DHT22;6592;47.484;9.726;2024-03-23T16:20:54;13.20;99.90
13052;DHT22;6592;47.484;9.726;2024-03-23T16:23:22;13.00;99.90
13052;DHT22;6592;47.484;9.726;2024-03-23T16:25:48;12.80;99.90
13052;DHT22;6592;47.484;9.726;2024-03-23T16:28:25;12.70;99.90
13052;DHT22;6592;47.484;9.726;2024-03-23T16:30:56;12.70;99.90
13052;DHT22;6592;47.484;9.726;2024-03-23T16:33:22;12.70;99.90
13052;DHT22;6592;47.484;9.726;2024-03-23T16:35:57;12.60;99.90
13052;DHT22;6592;47.484;9.726;2024-03-23T16:38:23;12.60;99.90
13052;DHT22;6592;47.484;9.726;2024-03-23T16:40:57;12.40;99.90
13052;DHT22;6592;47.484;9.726;2024-03-23T16:43:24;12.30;99.90
13052;DHT22;6592;47.484;9.726;2024-03-23T16:45:57;12.00;99.90
13052;DHT22;6592;47.484;9.726;2024-03-23T16:48:24;11.70;99.90
13052;DHT22;6592;47.484;9.726;2024-03-23T16:50:52;11.50;99.90